M\t Procida — IBJT — position and weather

sailwx.info

Track history (hours):
 
Tides and Currents Weather Stations Pressure Air Temp Water Temp Dewpoint Dewpoint Depression Visibility Wind Speed Wind Dir Waves Ship Positions

M\t Procida

Last reported at 2016-Jul-02 04:28 UTC. Time now 2016-Jul-02 07:42 UTC.
Position N 56°11' W 001°55'.

Length 149 m; draft 9.4 m.

Type: Tanker. MMSI: 247258400.

Date/timePositionNaut miles runAvg speedWind from/ knotsBaromVisibWave heightAir tempDewpointWater temp
2016-Jul-02 04:28N 56°11' W 001°55'1212.7
2016-Jul-02 03:33N 56°09' W 002°16'1313.1
2016-Jul-02 02:33N 56°07' W 002°39'1413.5
2016-Jul-02 01:33N 56°04' W 003°02'1211.9
2016-Jul-02 00:33N 56°00' W 003°23'10 5.2
2016-Jul-01 22:33N 56°02' W 003°41'  
2016-Jun-28 21:26N 56°02' W 003°42'1 0.5
2016-Jun-28 20:17N 56°02' W 003°41'7 7.4
2016-Jun-28 19:22N 56°01' W 003°29'8 9.7
2016-Jun-28 18:33N 56°02' W 003°15'6 6.0
2016-Jun-28 17:31N 56°05' W 003°05'0 0.0
2016-Jun-28 16:31N 56°05' W 003°05'0 0.1
2016-Jun-28 15:31N 56°05' W 003°04'0 0.0
2016-Jun-28 14:31N 56°05' W 003°04'7 7.2
2016-Jun-28 13:33N 56°06' W 002°52'1212.2
2016-Jun-28 12:33N 56°07' W 002°30'1313.1
2016-Jun-28 11:33N 56°05' W 002°07'1312.7
2016-Jun-28 10:33N 56°00' W 001°46'24912.2
2016-Jun-27 14:15N 54°05' E 004°38'126 9.9
2016-Jun-27 01:33N 52°04' E 003°39'1010.3
2016-Jun-27 00:33N 52°02' E 003°56'1110.8
2016-Jun-26 23:33N 51°57' E 004°11'8 7.5
2016-Jun-26 22:33N 51°54' E 004°22'0 0.0
2016-Jun-26 21:06N 51°54' E 004°22'0 0.0
2016-Jun-26 20:24N 51°54' E 004°22'0 0.0
2016-Jun-26 19:21N 51°54' E 004°22'0 0.0
2016-Jun-26 18:24N 51°54' E 004°22'0 0.0
2016-Jun-26 17:18N 51°54' E 004°22'0 0.0
2016-Jun-26 16:30N 51°54' E 004°22'0 0.0
2016-Jun-26 15:33N 51°54' E 004°22'0 0.0
2016-Jun-26 13:21N 51°54' E 004°22'0 0.0
2016-Jun-26 12:12N 51°54' E 004°22'0 0.0
2016-Jun-26 11:18N 51°54' E 004°22'0 0.0
2016-Jun-26 09:30N 51°54' E 004°22'0 0.0
2016-Jun-26 08:27N 51°54' E 004°22'0 0.0
2016-Jun-26 07:27N 51°54' E 004°22'0 0.0
2016-Jun-26 06:21N 51°54' E 004°22'0 0.0
2016-Jun-26 05:30N 51°54' E 004°22'0 0.0
2016-Jun-26 04:24N 51°54' E 004°22'0 0.0
2016-Jun-26 03:33N 51°54' E 004°22'0 0.0
2016-Jun-26 02:30N 51°54' E 004°22'0 0.0
2016-Jun-26 01:24N 51°54' E 004°22'0 0.0
2016-Jun-26 00:24N 51°54' E 004°22'0 0.0
2016-Jun-25 23:18N 51°54' E 004°22'0 0.0
2016-Jun-25 22:33N 51°54' E 004°22'0 0.0
2016-Jun-25 21:18N 51°54' E 004°22'0 0.0
2016-Jun-25 20:33N 51°54' E 004°22'0 0.0
2016-Jun-25 19:27N 51°54' E 004°22'0 0.0
2016-Jun-25 18:33N 51°54' E 004°22'0 0.0
2016-Jun-25 17:15N 51°54' E 004°22'0 0.0
2016-Jun-25 16:33N 51°54' E 004°22'0 0.0
2016-Jun-25 15:33N 51°54' E 004°22'0 0.0
2016-Jun-25 14:33N 51°54' E 004°22'0 0.0
2016-Jun-25 13:33N 51°54' E 004°22'0 0.0
2016-Jun-25 12:33N 51°54' E 004°22'0 0.0
2016-Jun-25 11:27N 51°54' E 004°22'0 0.0
2016-Jun-25 10:33N 51°54' E 004°22'0 0.0
2016-Jun-25 09:27N 51°54' E 004°22'0 0.0
2016-Jun-25 08:33N 51°54' E 004°22'3 2.6
2016-Jun-25 07:33N 51°54' E 004°18'1111.3
2016-Jun-25 06:33N 51°60' E 004°02'1010.3
2016-Jun-25 05:33N 51°59' E 003°45'9 9.0
2016-Jun-25 04:33N 51°54' E 003°33'0 0.3
2016-Jun-25 03:22N 51°54' E 003°33'0 0.0
2016-Jun-25 02:28N 51°54' E 003°33'0 0.1
2016-Jun-25 01:19N 51°54' E 003°32'0 0.0
2016-Jun-24 23:28N 51°54' E 003°32'0 0.1
2016-Jun-24 21:28N 51°54' E 003°33'0 0.1
2016-Jun-24 20:31N 51°54' E 003°33'0 0.0
2016-Jun-24 19:28N 51°54' E 003°33'0 0.0
2016-Jun-24 18:31N 51°54' E 003°33'0 0.0
2016-Jun-24 17:31N 51°54' E 003°33'0 0.0
2016-Jun-24 16:31N 51°54' E 003°33'0 0.0
2016-Jun-24 15:31N 51°54' E 003°33'0 0.0
2016-Jun-24 14:16N 51°54' E 003°33'0 0.2
2016-Jun-24 13:28N 51°54' E 003°32'0 0.0
2016-Jun-24 12:22N 51°54' E 003°32'0 0.0
2016-Jun-24 11:04N 51°54' E 003°32'0 0.0
2016-Jun-24 10:28N 51°54' E 003°32'0 0.0
2016-Jun-24 09:25N 51°54' E 003°32'0 0.1
2016-Jun-24 08:22N 51°54' E 003°33'0 0.1
2016-Jun-24 07:28N 51°54' E 003°33'0 0.0
2016-Jun-24 03:07N 51°54' E 003°33'0 0.0
2016-Jun-24 02:07N 51°54' E 003°33'0 0.1
2016-Jun-24 01:31N 51°54' E 003°33'0 0.1
2016-Jun-24 00:28N 51°54' E 003°32'0 0.0
2016-Jun-23 23:25N 51°54' E 003°32'0 0.0
2016-Jun-23 22:25N 51°54' E 003°32'0 0.0
2016-Jun-23 21:31N 51°54' E 003°32'0 0.0
2016-Jun-23 20:28N 51°54' E 003°32'0 0.1
2016-Jun-23 19:31N 51°54' E 003°32'0 0.1
2016-Jun-23 18:28N 51°54' E 003°33'0 0.0
2016-Jun-23 16:13N 51°54' E 003°33'0 0.0
2016-Jun-23 15:13N 51°54' E 003°33'0 0.1
2016-Jun-23 12:31N 51°54' E 003°32'0 0.0
2016-Jun-23 11:31N 51°54' E 003°32'0 0.0
2016-Jun-23 10:25N 51°54' E 003°32'0 0.0
2016-Jun-23 09:28N 51°54' E 003°32'0 0.0
2016-Jun-23 08:31N 51°54' E 003°32'0 0.1
2016-Jun-23 07:28N 51°54' E 003°32'0 0.0
2016-Jun-23 05:07N 51°54' E 003°33'0 0.0
2016-Jun-23 04:22N 51°54' E 003°33'0 0.0
2016-Jun-23 03:31N 51°54' E 003°33'0 0.1
2016-Jun-23 01:25N 51°54' E 003°32'0 0.1
2016-Jun-23 00:25N 51°54' E 003°32'0 0.0
2016-Jun-22 23:31N 51°54' E 003°32'0 0.0
2016-Jun-22 22:16N 51°54' E 003°32'0 0.0
2016-Jun-22 21:28N 51°54' E 003°32'0 0.0
2016-Jun-22 20:04N 51°54' E 003°32'0 0.0
2016-Jun-22 16:16N 51°54' E 003°33'0 0.0
2016-Jun-22 15:22N 51°54' E 003°33'0 0.0
2016-Jun-22 12:28N 51°54' E 003°32'0 0.0
2016-Jun-22 09:07N 51°54' E 003°32'0 0.0
2016-Jun-22 08:28N 51°54' E 003°32'0 0.1
2016-Jun-22 06:28N 51°54' E 003°32'0 0.0
2016-Jun-22 05:28N 51°54' E 003°33'  
Track history (hours):
 
Tides and Currents Weather Stations Pressure Air Temp Water Temp Dewpoint Dewpoint Depression Visibility Wind Speed Wind Dir Waves Ship Positions

M\t Procida

Last reported at 2016-Jul-02 04:28 UTC. Time now 2016-Jul-02 07:42 UTC.
Position N 56°11' W 001°55'.

Length 149 m; draft 9.4 m.

Type: Tanker. MMSI: 247258400.

Date/timePositionNaut miles runAvg speedWind from/ knotsBaromVisibWave heightAir tempDewpointWater temp
2016-Jul-02 04:28N 56°11' W 001°55'1212.7
2016-Jul-02 03:33N 56°09' W 002°16'1313.1
2016-Jul-02 02:33N 56°07' W 002°39'1413.5
2016-Jul-02 01:33N 56°04' W 003°02'1211.9
2016-Jul-02 00:33N 56°00' W 003°23'10 5.2
2016-Jul-01 22:33N 56°02' W 003°41'  
2016-Jun-28 21:26N 56°02' W 003°42'1 0.5
2016-Jun-28 20:17N 56°02' W 003°41'7 7.4
2016-Jun-28 19:22N 56°01' W 003°29'8 9.7
2016-Jun-28 18:33N 56°02' W 003°15'6 6.0
2016-Jun-28 17:31N 56°05' W 003°05'0 0.0
2016-Jun-28 16:31N 56°05' W 003°05'0 0.1
2016-Jun-28 15:31N 56°05' W 003°04'0 0.0
2016-Jun-28 14:31N 56°05' W 003°04'7 7.2
2016-Jun-28 13:33N 56°06' W 002°52'1212.2
2016-Jun-28 12:33N 56°07' W 002°30'1313.1
2016-Jun-28 11:33N 56°05' W 002°07'1312.7
2016-Jun-28 10:33N 56°00' W 001°46'24912.2
2016-Jun-27 14:15N 54°05' E 004°38'126 9.9
2016-Jun-27 01:33N 52°04' E 003°39'1010.3
2016-Jun-27 00:33N 52°02' E 003°56'1110.8
2016-Jun-26 23:33N 51°57' E 004°11'8 7.5
2016-Jun-26 22:33N 51°54' E 004°22'0 0.0
2016-Jun-26 21:06N 51°54' E 004°22'0 0.0
2016-Jun-26 20:24N 51°54' E 004°22'0 0.0
2016-Jun-26 19:21N 51°54' E 004°22'0 0.0
2016-Jun-26 18:24N 51°54' E 004°22'0 0.0
2016-Jun-26 17:18N 51°54' E 004°22'0 0.0
2016-Jun-26 16:30N 51°54' E 004°22'0 0.0
2016-Jun-26 15:33N 51°54' E 004°22'0 0.0
2016-Jun-26 13:21N 51°54' E 004°22'0 0.0
2016-Jun-26 12:12N 51°54' E 004°22'0 0.0
2016-Jun-26 11:18N 51°54' E 004°22'0 0.0
2016-Jun-26 09:30N 51°54' E 004°22'0 0.0
2016-Jun-26 08:27N 51°54' E 004°22'0 0.0
2016-Jun-26 07:27N 51°54' E 004°22'0 0.0
2016-Jun-26 06:21N 51°54' E 004°22'0 0.0
2016-Jun-26 05:30N 51°54' E 004°22'0 0.0
2016-Jun-26 04:24N 51°54' E 004°22'0 0.0
2016-Jun-26 03:33N 51°54' E 004°22'0 0.0
2016-Jun-26 02:30N 51°54' E 004°22'0 0.0
2016-Jun-26 01:24N 51°54' E 004°22'0 0.0
2016-Jun-26 00:24N 51°54' E 004°22'0 0.0
2016-Jun-25 23:18N 51°54' E 004°22'0 0.0
2016-Jun-25 22:33N 51°54' E 004°22'0 0.0
2016-Jun-25 21:18N 51°54' E 004°22'0 0.0
2016-Jun-25 20:33N 51°54' E 004°22'0 0.0
2016-Jun-25 19:27N 51°54' E 004°22'0 0.0
2016-Jun-25 18:33N 51°54' E 004°22'0 0.0
2016-Jun-25 17:15N 51°54' E 004°22'0 0.0
2016-Jun-25 16:33N 51°54' E 004°22'0 0.0
2016-Jun-25 15:33N 51°54' E 004°22'0 0.0
2016-Jun-25 14:33N 51°54' E 004°22'0 0.0
2016-Jun-25 13:33N 51°54' E 004°22'0 0.0
2016-Jun-25 12:33N 51°54' E 004°22'0 0.0
2016-Jun-25 11:27N 51°54' E 004°22'0 0.0
2016-Jun-25 10:33N 51°54' E 004°22'0 0.0
2016-Jun-25 09:27N 51°54' E 004°22'0 0.0
2016-Jun-25 08:33N 51°54' E 004°22'3 2.6
2016-Jun-25 07:33N 51°54' E 004°18'1111.3
2016-Jun-25 06:33N 51°60' E 004°02'1010.3
2016-Jun-25 05:33N 51°59' E 003°45'9 9.0
2016-Jun-25 04:33N 51°54' E 003°33'0 0.3
2016-Jun-25 03:22N 51°54' E 003°33'0 0.0
2016-Jun-25 02:28N 51°54' E 003°33'0 0.1
2016-Jun-25 01:19N 51°54' E 003°32'0 0.0
2016-Jun-24 23:28N 51°54' E 003°32'0 0.1
2016-Jun-24 21:28N 51°54' E 003°33'0 0.1
2016-Jun-24 20:31N 51°54' E 003°33'0 0.0
2016-Jun-24 19:28N 51°54' E 003°33'0 0.0
2016-Jun-24 18:31N 51°54' E 003°33'0 0.0
2016-Jun-24 17:31N 51°54' E 003°33'0 0.0
2016-Jun-24 16:31N 51°54' E 003°33'0 0.0
2016-Jun-24 15:31N 51°54' E 003°33'0 0.0
2016-Jun-24 14:16N 51°54' E 003°33'0 0.2
2016-Jun-24 13:28N 51°54' E 003°32'0 0.0
2016-Jun-24 12:22N 51°54' E 003°32'0 0.0
2016-Jun-24 11:04N 51°54' E 003°32'0 0.0
2016-Jun-24 10:28N 51°54' E 003°32'0 0.0
2016-Jun-24 09:25N 51°54' E 003°32'0 0.1
2016-Jun-24 08:22N 51°54' E 003°33'0 0.1
2016-Jun-24 07:28N 51°54' E 003°33'0 0.0
2016-Jun-24 03:07N 51°54' E 003°33'0 0.0
2016-Jun-24 02:07N 51°54' E 003°33'0 0.1
2016-Jun-24 01:31N 51°54' E 003°33'0 0.1
2016-Jun-24 00:28N 51°54' E 003°32'0 0.0
2016-Jun-23 23:25N 51°54' E 003°32'0 0.0
2016-Jun-23 22:25N 51°54' E 003°32'0 0.0
2016-Jun-23 21:31N 51°54' E 003°32'0 0.0
2016-Jun-23 20:28N 51°54' E 003°32'0 0.1
2016-Jun-23 19:31N 51°54' E 003°32'0 0.1
2016-Jun-23 18:28N 51°54' E 003°33'0 0.0
2016-Jun-23 16:13N 51°54' E 003°33'0 0.0
2016-Jun-23 15:13N 51°54' E 003°33'0 0.1
2016-Jun-23 12:31N 51°54' E 003°32'0 0.0
2016-Jun-23 11:31N 51°54' E 003°32'0 0.0
2016-Jun-23 10:25N 51°54' E 003°32'0 0.0
2016-Jun-23 09:28N 51°54' E 003°32'0 0.0
2016-Jun-23 08:31N 51°54' E 003°32'0 0.1
2016-Jun-23 07:28N 51°54' E 003°32'0 0.0
2016-Jun-23 05:07N 51°54' E 003°33'0 0.0
2016-Jun-23 04:22N 51°54' E 003°33'0 0.0
2016-Jun-23 03:31N 51°54' E 003°33'0 0.1
2016-Jun-23 01:25N 51°54' E 003°32'0 0.1
2016-Jun-23 00:25N 51°54' E 003°32'0 0.0
2016-Jun-22 23:31N 51°54' E 003°32'0 0.0
2016-Jun-22 22:16N 51°54' E 003°32'0 0.0
2016-Jun-22 21:28N 51°54' E 003°32'0 0.0
2016-Jun-22 20:04N 51°54' E 003°32'0 0.0
2016-Jun-22 16:16N 51°54' E 003°33'0 0.0
2016-Jun-22 15:22N 51°54' E 003°33'0 0.0
2016-Jun-22 12:28N 51°54' E 003°32'0 0.0
2016-Jun-22 09:07N 51°54' E 003°32'0 0.0
2016-Jun-22 08:28N 51°54' E 003°32'0 0.1
2016-Jun-22 06:28N 51°54' E 003°32'0 0.0
2016-Jun-22 05:28N 51°54' E 003°33'  

Dump ship's entire track history